createdAt,value
2023-03-19T00:00:10.188Z,14.26
2023-03-19T00:02:49.899Z,14.26
2023-03-19T00:05:22.577Z,14.24
2023-03-19T00:07:55.503Z,14.25
2023-03-19T00:10:28.263Z,14.22
2023-03-19T00:13:01.074Z,14.21
2023-03-19T00:15:33.926Z,14.20
2023-03-19T00:18:08.776Z,14.18
2023-03-19T00:20:41.837Z,14.18
2023-03-19T00:23:14.557Z,14.17
2023-03-19T00:25:47.249Z,14.18
2023-03-19T00:28:19.954Z,14.17
2023-03-19T00:30:52.834Z,14.18
2023-03-19T00:33:27.576Z,14.18
2023-03-19T00:36:00.910Z,14.18
2023-03-19T00:38:34.340Z,14.21
2023-03-19T00:41:07.511Z,14.22
2023-03-19T00:43:41.236Z,14.23
2023-03-19T00:46:14.677Z,14.25
2023-03-19T00:48:48.844Z,14.26
2023-03-19T00:51:21.633Z,14.28
2023-03-19T00:53:54.686Z,14.31
2023-03-19T00:56:27.533Z,14.30
2023-03-19T00:59:00.329Z,14.33
2023-03-19T01:01:33.074Z,14.34
2023-03-19T01:04:07.566Z,14.39
2023-03-19T01:06:40.296Z,14.39
2023-03-19T01:09:12.977Z,14.40
2023-03-19T01:11:45.869Z,14.44
2023-03-19T01:14:18.637Z,14.47
2023-03-19T01:16:51.332Z,14.47
2023-03-19T01:19:25.505Z,14.51
2023-03-19T01:21:58.366Z,14.53
2023-03-19T01:24:31.285Z,14.55
2023-03-19T01:27:04.039Z,14.58
2023-03-19T01:29:36.898Z,14.59
2023-03-19T01:32:09.721Z,14.63
2023-03-19T01:34:43.756Z,14.66
2023-03-19T01:37:16.543Z,14.68
2023-03-19T01:39:49.467Z,14.72
2023-03-19T01:42:22.259Z,14.74
2023-03-19T01:44:55.279Z,14.75
2023-03-19T01:47:31.590Z,14.78
2023-03-19T01:50:06.349Z,14.80
2023-03-19T01:52:38.980Z,14.82
2023-03-19T01:55:11.999Z,14.82
2023-03-19T01:57:44.779Z,14.84
2023-03-19T02:00:17.773Z,14.84
2023-03-19T02:02:53.843Z,14.84
2023-03-19T02:05:28.474Z,14.85
2023-03-19T02:08:02.457Z,14.85
2023-03-19T02:10:36.090Z,14.85
2023-03-19T02:13:09.113Z,14.84
2023-03-19T02:15:42.134Z,14.83
2023-03-19T02:18:16.112Z,14.83
2023-03-19T02:20:52.786Z,14.83
2023-03-19T02:23:29.310Z,14.83
2023-03-19T02:26:06.302Z,14.82
2023-03-19T02:28:40.847Z,14.82
2023-03-19T02:31:13.861Z,14.81
2023-03-19T02:33:46.756Z,14.81
2023-03-19T02:36:21.016Z,14.82
2023-03-19T02:38:54.717Z,14.81
2023-03-19T02:41:29.763Z,14.81
2023-03-19T02:44:03.740Z,14.81
2023-03-19T02:46:36.702Z,14.82
2023-03-19T02:49:09.428Z,14.82
2023-03-19T02:51:42.252Z,14.82
2023-03-19T02:54:14.902Z,14.82
2023-03-19T02:56:49.208Z,14.83
2023-03-19T02:59:22.048Z,14.83
2023-03-19T03:01:55.126Z,14.84
2023-03-19T03:04:27.808Z,14.83
2023-03-19T03:07:00.949Z,14.83
2023-03-19T03:09:33.666Z,14.81
2023-03-19T03:12:08.466Z,14.82
2023-03-19T03:14:41.920Z,14.81
2023-03-19T03:17:15.574Z,14.80
2023-03-19T03:19:49.023Z,14.79
2023-03-19T03:22:21.725Z,14.79
2023-03-19T03:24:54.415Z,14.78
2023-03-19T03:27:28.581Z,14.77
2023-03-19T03:30:01.445Z,14.76
2023-03-19T03:32:34.480Z,14.75
2023-03-19T03:35:08.317Z,14.73
2023-03-19T03:37:41.073Z,14.71
2023-03-19T03:40:14.435Z,14.70
2023-03-19T03:42:48.539Z,14.70
2023-03-19T03:45:21.256Z,14.69
2023-03-19T03:47:53.982Z,14.68
2023-03-19T03:50:26.682Z,14.66
2023-03-19T03:52:59.372Z,14.64
2023-03-19T03:55:32.128Z,14.64
2023-03-19T03:58:06.805Z,14.62
2023-03-19T04:00:39.588Z,14.60
2023-03-19T04:03:12.861Z,14.57
2023-03-19T04:05:45.859Z,14.54
2023-03-19T04:08:18.902Z,14.51
2023-03-19T04:10:51.820Z,14.49
2023-03-19T04:13:26.521Z,14.47
2023-03-19T04:15:59.288Z,14.46
2023-03-19T04:18:32.034Z,14.41
2023-03-19T04:21:04.969Z,14.39
2023-03-19T04:23:37.731Z,14.38
2023-03-19T04:26:12.423Z,14.34
2023-03-19T04:28:46.566Z,14.32
2023-03-19T04:31:19.357Z,14.30
2023-03-19T04:33:52.541Z,14.29
2023-03-19T04:36:25.426Z,14.26
2023-03-19T04:38:58.161Z,14.24
2023-03-19T04:41:30.954Z,14.22
2023-03-19T04:44:05.065Z,14.19
2023-03-19T04:46:37.802Z,14.16
2023-03-19T04:49:10.827Z,14.13
2023-03-19T04:51:43.587Z,14.10
2023-03-19T04:54:16.611Z,14.08
2023-03-19T04:56:49.282Z,14.06
2023-03-19T04:59:23.544Z,14.04
2023-03-19T05:01:56.803Z,14.01
2023-03-19T05:04:29.490Z,14.00
2023-03-19T05:07:02.239Z,14.00
2023-03-19T05:09:34.961Z,13.97
2023-03-19T05:12:08.560Z,13.96
2023-03-19T05:14:43.005Z,13.96
2023-03-19T05:17:15.754Z,13.95
2023-03-19T05:19:48.716Z,13.93
2023-03-19T05:22:21.579Z,13.94
2023-03-19T05:24:54.313Z,13.91
2023-03-19T05:27:27.446Z,13.90
2023-03-19T05:30:01.679Z,13.90
2023-03-19T05:32:34.533Z,13.89
2023-03-19T05:35:07.662Z,13.88
2023-03-19T05:37:40.747Z,13.88
2023-03-19T05:40:13.743Z,13.88
2023-03-19T05:42:46.565Z,13.87
2023-03-19T05:45:20.799Z,13.87
2023-03-19T05:47:53.836Z,13.87
2023-03-19T05:50:26.632Z,13.86
2023-03-19T05:52:59.400Z,13.85
2023-03-19T05:55:32.134Z,13.86
2023-03-19T05:58:05.882Z,13.84
2023-03-19T06:00:40.069Z,13.84
2023-03-19T06:03:13.062Z,13.86
2023-03-19T06:05:45.814Z,13.86
2023-03-19T06:08:18.899Z,13.87
2023-03-19T06:10:51.877Z,13.88
2023-03-19T06:13:24.570Z,13.88
2023-03-19T06:15:58.731Z,13.88
2023-03-19T06:18:32.107Z,13.89
2023-03-19T06:21:05.191Z,13.89
2023-03-19T06:23:37.811Z,13.90
2023-03-19T06:26:10.535Z,13.89
2023-03-19T06:28:43.264Z,13.90
2023-03-19T06:31:17.714Z,13.89
2023-03-19T06:33:50.451Z,13.91
2023-03-19T06:36:23.182Z,13.88
2023-03-19T06:38:56.181Z,13.90
2023-03-19T06:41:28.949Z,13.91
2023-03-19T06:44:01.673Z,13.94
2023-03-19T06:46:36.103Z,13.94
2023-03-19T06:49:08.880Z,13.97
2023-03-19T06:51:41.673Z,13.99
2023-03-19T06:54:14.419Z,14.02
2023-03-19T06:56:47.818Z,14.05
2023-03-19T06:59:20.616Z,14.09
2023-03-19T07:01:54.708Z,14.13
2023-03-19T07:04:27.485Z,14.16
2023-03-19T07:07:02.534Z,14.20
2023-03-19T07:09:35.223Z,14.24
2023-03-19T07:12:08.309Z,14.27
2023-03-19T07:14:41.071Z,14.32
2023-03-19T07:17:15.500Z,14.38
2023-03-19T07:19:48.229Z,14.43
2023-03-19T07:22:21.892Z,14.47
2023-03-19T07:24:54.576Z,14.55
2023-03-19T07:27:27.634Z,14.61
2023-03-19T07:30:00.319Z,14.67
2023-03-19T07:32:34.509Z,14.75
2023-03-19T07:35:07.838Z,14.84
2023-03-19T07:37:40.831Z,14.95
2023-03-19T07:40:13.861Z,15.02
2023-03-19T07:42:46.805Z,15.13
2023-03-19T07:45:19.640Z,15.23
2023-03-19T07:47:53.721Z,15.33
2023-03-19T07:50:26.675Z,15.44
2023-03-19T07:52:59.566Z,15.56
2023-03-19T07:55:32.317Z,15.66
2023-03-19T07:58:05.054Z,15.80
2023-03-19T08:00:37.764Z,15.91
2023-03-19T08:03:12.206Z,16.04
2023-03-19T08:05:44.942Z,16.17
2023-03-19T08:08:17.750Z,16.34
2023-03-19T08:10:50.994Z,16.49
2023-03-19T08:13:23.823Z,16.67
2023-03-19T08:15:56.572Z,16.85
2023-03-19T08:18:30.739Z,17.01
2023-03-19T08:21:03.958Z,17.16
2023-03-19T08:23:36.673Z,17.32
2023-03-19T08:26:09.436Z,17.48
2023-03-19T08:28:42.217Z,17.61
2023-03-19T08:31:15.277Z,17.73
2023-03-19T08:33:49.377Z,17.85
2023-03-19T08:36:22.190Z,17.98
2023-03-19T08:38:55.098Z,18.10
2023-03-19T08:41:27.764Z,18.22
2023-03-19T08:44:00.790Z,18.35
2023-03-19T08:46:34.147Z,18.47
2023-03-19T08:49:08.329Z,18.57
2023-03-19T08:51:40.955Z,18.69
2023-03-19T08:54:13.890Z,18.78
2023-03-19T08:56:46.769Z,18.89
2023-03-19T08:59:19.843Z,18.97
2023-03-19T09:01:53.364Z,19.05
2023-03-19T09:04:28.190Z,19.13
2023-03-19T09:07:01.123Z,19.22
2023-03-19T09:09:34.494Z,19.32
2023-03-19T09:12:08.064Z,19.39
2023-03-19T09:14:41.160Z,19.48
2023-03-19T09:17:15.623Z,19.58
2023-03-19T09:19:49.831Z,19.65
2023-03-19T09:22:22.577Z,19.73
2023-03-19T09:24:55.718Z,19.83
2023-03-19T09:27:28.692Z,19.92
2023-03-19T09:30:01.493Z,20.05
2023-03-19T09:32:34.245Z,20.17
2023-03-19T09:35:09.222Z,20.31
2023-03-19T09:37:41.946Z,20.44
2023-03-19T09:40:22.345Z,20.56
2023-03-19T09:43:00.695Z,20.67
2023-03-19T09:45:33.767Z,20.77
2023-03-19T09:48:09.023Z,20.84
2023-03-19T09:50:43.606Z,20.91
2023-03-19T09:53:19.228Z,20.97
2023-03-19T09:55:54.209Z,21.04
2023-03-19T09:58:29.277Z,21.10
2023-03-19T10:01:02.194Z,21.19
2023-03-19T10:03:44.436Z,21.26
2023-03-19T10:06:26.731Z,21.34
2023-03-19T10:09:05.881Z,21.39
2023-03-19T10:11:46.648Z,21.49
2023-03-19T10:14:33.441Z,21.54
2023-03-19T10:17:07.778Z,21.61
2023-03-19T10:19:43.108Z,21.71
2023-03-19T10:22:20.590Z,21.77
2023-03-19T10:24:55.421Z,21.87
2023-03-19T10:27:29.800Z,21.97
2023-03-19T10:30:02.596Z,22.06
2023-03-19T10:32:39.644Z,22.13
2023-03-19T10:35:19.297Z,22.17
2023-03-19T10:37:55.314Z,22.19
2023-03-19T10:40:31.257Z,22.18
2023-03-19T10:43:07.703Z,22.15
2023-03-19T10:45:40.901Z,22.11
2023-03-19T10:48:14.725Z,22.05
2023-03-19T10:50:50.506Z,21.95
2023-03-19T10:53:30.061Z,21.82
2023-03-19T10:56:03.880Z,21.69
2023-03-19T10:58:37.990Z,21.57
2023-03-19T11:01:12.118Z,21.42
2023-03-19T11:03:51.916Z,21.29
2023-03-19T11:06:26.495Z,21.13
2023-03-19T11:09:02.280Z,21.02
2023-03-19T11:11:36.755Z,20.91
2023-03-19T11:14:11.045Z,20.83
2023-03-19T11:16:57.383Z,20.77
2023-03-19T11:19:31.032Z,20.75
2023-03-19T11:22:09.860Z,20.76
2023-03-19T11:24:49.970Z,20.79
2023-03-19T11:27:29.799Z,20.85
2023-03-19T11:30:02.654Z,20.93
2023-03-19T11:32:53.579Z,21.01
2023-03-19T11:35:28.901Z,21.12
2023-03-19T11:38:02.782Z,21.22
2023-03-19T11:40:44.771Z,21.34
2023-03-19T11:43:29.862Z,21.46
2023-03-19T11:46:08.136Z,21.56
2023-03-19T11:48:47.714Z,21.66
2023-03-19T11:51:23.665Z,21.71
2023-03-19T11:54:00.819Z,21.76
2023-03-19T11:56:41.025Z,21.80
2023-03-19T11:59:25.809Z,21.83
2023-03-19T12:02:10.410Z,21.86
2023-03-19T12:04:49.658Z,21.88
2023-03-19T12:07:26.845Z,21.92
2023-03-19T12:10:04.431Z,21.96
2023-03-19T12:12:42.407Z,22.00
2023-03-19T12:15:19.789Z,22.05
2023-03-19T12:18:00.011Z,22.11
2023-03-19T12:20:36.209Z,22.19
2023-03-19T12:23:14.207Z,22.29
2023-03-19T12:26:04.706Z,22.40
2023-03-19T12:28:43.200Z,22.50
2023-03-19T12:31:28.446Z,22.62
2023-03-19T12:34:07.429Z,22.73
2023-03-19T12:36:42.940Z,22.80
2023-03-19T12:39:20.237Z,22.88
2023-03-19T12:41:53.568Z,22.93
2023-03-19T12:44:31.809Z,22.96
2023-03-19T12:47:07.370Z,22.98
2023-03-19T12:49:43.283Z,22.99
2023-03-19T12:52:19.851Z,23.00
2023-03-19T12:54:57.214Z,23.00
2023-03-19T12:57:33.383Z,23.00
2023-03-19T13:00:12.508Z,23.03
2023-03-19T13:02:49.204Z,23.03
2023-03-19T13:05:26.318Z,23.06
2023-03-19T13:08:03.111Z,23.08
2023-03-19T13:10:36.398Z,23.11
2023-03-19T13:13:16.398Z,23.13
2023-03-19T13:15:54.233Z,23.16
2023-03-19T13:18:34.404Z,23.19
2023-03-19T13:21:22.555Z,23.21
2023-03-19T13:24:04.069Z,23.25
2023-03-19T13:26:37.624Z,23.28
2023-03-19T13:29:17.132Z,23.32
2023-03-19T13:31:52.084Z,23.35
2023-03-19T13:34:28.778Z,23.36
2023-03-19T13:37:03.009Z,23.37
2023-03-19T13:39:36.566Z,23.37
2023-03-19T13:42:35.981Z,23.35
2023-03-19T13:45:23.527Z,23.32
2023-03-19T13:47:58.719Z,23.28
2023-03-19T13:50:33.525Z,23.25
2023-03-19T13:53:15.011Z,23.23
2023-03-19T13:55:51.437Z,23.20
2023-03-19T13:58:43.507Z,23.15
2023-03-19T14:01:34.851Z,23.09
2023-03-19T14:04:16.893Z,22.99
2023-03-19T14:06:50.275Z,22.89
2023-03-19T14:09:31.583Z,22.78
2023-03-19T14:12:21.925Z,22.66
2023-03-19T14:14:57.172Z,22.52
2023-03-19T14:17:32.689Z,22.41
2023-03-19T14:20:28.022Z,22.29
2023-03-19T14:23:23.471Z,22.13
2023-03-19T14:26:01.361Z,21.98
2023-03-19T14:28:36.783Z,21.84
2023-03-19T14:31:19.516Z,21.70
2023-03-19T14:33:55.246Z,21.56
2023-03-19T14:36:29.855Z,21.44
2023-03-19T14:39:05.140Z,21.34
2023-03-19T14:41:43.346Z,21.19
2023-03-19T14:44:30.868Z,21.08
2023-03-19T14:47:12.412Z,20.91
2023-03-19T14:49:52.743Z,20.77
2023-03-19T14:52:28.121Z,20.57
2023-03-19T14:55:01.629Z,20.40
2023-03-19T14:57:35.883Z,20.25
2023-03-19T15:00:15.103Z,20.11
2023-03-19T15:02:48.805Z,19.94
2023-03-19T15:05:23.932Z,19.80
2023-03-19T15:07:59.444Z,19.65
2023-03-19T15:10:36.907Z,19.50
2023-03-19T15:13:19.633Z,19.37
2023-03-19T15:16:10.466Z,19.23
2023-03-19T15:18:43.616Z,19.10
2023-03-19T15:21:16.606Z,18.99
2023-03-19T15:23:50.837Z,18.85
2023-03-19T15:26:33.979Z,18.71
2023-03-19T15:29:11.685Z,18.57
2023-03-19T15:31:52.873Z,18.42
2023-03-19T15:34:30.436Z,18.26
2023-03-19T15:37:05.721Z,18.15
2023-03-19T15:39:42.721Z,18.02
2023-03-19T15:42:17.231Z,17.90
2023-03-19T15:44:51.210Z,17.79
2023-03-19T15:47:25.971Z,17.68
2023-03-19T15:50:00.019Z,17.57
2023-03-19T15:52:33.373Z,17.45
2023-03-19T15:55:08.711Z,17.33
2023-03-19T15:57:42.306Z,17.24
2023-03-19T16:00:15.929Z,17.13
2023-03-19T16:02:50.215Z,17.02
2023-03-19T16:05:26.456Z,16.91
2023-03-19T16:08:00.546Z,16.81
2023-03-19T16:10:39.766Z,16.72
2023-03-19T16:13:24.421Z,16.61
2023-03-19T16:16:01.659Z,16.51
2023-03-19T16:18:42.611Z,16.42
2023-03-19T16:21:17.921Z,16.31
2023-03-19T16:23:59.351Z,16.23
2023-03-19T16:26:39.478Z,16.16
2023-03-19T16:29:20.655Z,16.12
2023-03-19T16:31:54.074Z,16.07
2023-03-19T16:34:32.268Z,16.02
2023-03-19T16:37:19.982Z,16.01
2023-03-19T16:39:55.261Z,15.98
2023-03-19T16:42:38.102Z,15.95
2023-03-19T16:45:21.507Z,15.95
2023-03-19T16:47:55.144Z,15.92
2023-03-19T16:50:30.433Z,15.91
2023-03-19T16:53:05.165Z,15.89
2023-03-19T16:55:38.477Z,15.86
2023-03-19T16:58:16.104Z,15.87
2023-03-19T17:00:48.897Z,15.84
2023-03-19T17:03:22.210Z,15.82
2023-03-19T17:05:55.054Z,15.80
2023-03-19T17:08:27.826Z,15.80
2023-03-19T17:11:00.611Z,15.76
2023-03-19T17:13:37.594Z,15.75
2023-03-19T17:16:10.727Z,15.75
2023-03-19T17:18:45.011Z,15.73
2023-03-19T17:21:19.451Z,15.72
2023-03-19T17:23:52.283Z,15.70
2023-03-19T17:26:27.277Z,15.68
2023-03-19T17:29:01.352Z,15.67
2023-03-19T17:31:34.448Z,15.65
2023-03-19T17:34:10.653Z,15.63
2023-03-19T17:36:44.211Z,15.61
2023-03-19T17:39:17.160Z,15.57
2023-03-19T17:41:50.057Z,15.56
2023-03-19T17:44:24.275Z,15.52
2023-03-19T17:46:57.202Z,15.46
2023-03-19T17:49:32.274Z,15.40
2023-03-19T17:52:05.155Z,15.35
2023-03-19T17:54:38.038Z,15.28
2023-03-19T17:57:13.049Z,15.20
2023-03-19T17:59:47.117Z,15.14
2023-03-19T18:02:28.000Z,15.04
2023-03-19T18:05:02.245Z,14.95
2023-03-19T18:07:35.024Z,14.86
2023-03-19T18:10:08.262Z,14.79
2023-03-19T18:12:40.963Z,14.70
2023-03-19T18:15:15.353Z,14.63
2023-03-19T18:17:49.591Z,14.54
2023-03-19T18:20:23.912Z,14.46
2023-03-19T18:22:56.540Z,14.37
2023-03-19T18:25:32.113Z,14.29
2023-03-19T18:28:05.603Z,14.20
2023-03-19T18:30:41.415Z,14.12
2023-03-19T18:33:16.470Z,14.04
2023-03-19T18:35:49.304Z,13.97
2023-03-19T18:38:23.345Z,13.88
2023-03-19T18:40:56.586Z,13.81
2023-03-19T18:43:29.648Z,13.76
2023-03-19T18:46:04.287Z,13.69
2023-03-19T18:48:37.038Z,13.66
2023-03-19T18:51:11.311Z,13.65
2023-03-19T18:53:44.179Z,13.61
2023-03-19T18:56:21.517Z,13.60
2023-03-19T18:58:54.910Z,13.58
2023-03-19T19:01:29.552Z,13.56
2023-03-19T19:04:02.338Z,13.56
2023-03-19T19:06:46.930Z,13.55
2023-03-19T19:09:21.062Z,13.55
2023-03-19T19:11:54.488Z,13.53
2023-03-19T19:14:27.192Z,13.54
2023-03-19T19:17:01.314Z,13.55
2023-03-19T19:19:34.959Z,13.53
2023-03-19T19:22:07.727Z,13.55
2023-03-19T19:24:40.436Z,13.54
2023-03-19T19:27:16.626Z,13.54
2023-03-19T19:29:50.218Z,13.52
2023-03-19T19:32:25.810Z,13.51
2023-03-19T19:34:58.509Z,13.49
2023-03-19T19:37:31.320Z,13.45
2023-03-19T19:40:04.178Z,13.45
2023-03-19T19:42:37.123Z,13.41
2023-03-19T19:45:18.457Z,13.39
2023-03-19T19:47:52.930Z,13.38
2023-03-19T19:50:27.637Z,13.36
2023-03-19T19:53:00.569Z,13.37
2023-03-19T19:55:33.879Z,13.37
2023-03-19T19:58:08.650Z,13.38
2023-03-19T20:00:45.627Z,13.38
2023-03-19T20:03:25.258Z,13.39
2023-03-19T20:05:58.277Z,13.41
2023-03-19T20:08:31.303Z,13.42
2023-03-19T20:11:04.117Z,13.44
2023-03-19T20:13:37.802Z,13.44
2023-03-19T20:16:11.559Z,13.45
2023-03-19T20:18:46.120Z,13.47
2023-03-19T20:21:18.754Z,13.48
2023-03-19T20:23:55.311Z,13.47
2023-03-19T20:26:30.787Z,13.47
2023-03-19T20:29:03.903Z,13.47
2023-03-19T20:31:37.543Z,13.45
2023-03-19T20:34:22.583Z,13.44
2023-03-19T20:37:01.806Z,13.44
2023-03-19T20:39:34.616Z,13.43
2023-03-19T20:42:09.732Z,13.42
2023-03-19T20:44:43.162Z,13.40
2023-03-19T20:47:17.643Z,13.37
2023-03-19T20:49:53.428Z,13.34
2023-03-19T20:52:26.178Z,13.30
2023-03-19T20:54:59.332Z,13.28
2023-03-19T20:57:32.088Z,13.21
2023-03-19T21:00:17.869Z,13.18
2023-03-19T21:02:51.470Z,13.13
2023-03-19T21:05:27.004Z,13.10
2023-03-19T21:07:59.754Z,13.08
2023-03-19T21:10:33.682Z,13.09
2023-03-19T21:13:07.244Z,13.09
2023-03-19T21:15:40.162Z,13.09
2023-03-19T21:18:13.347Z,13.12
2023-03-19T21:20:49.668Z,13.11
2023-03-19T21:23:25.765Z,13.08
2023-03-19T21:25:58.826Z,13.07
2023-03-19T21:28:35.624Z,13.03
2023-03-19T21:31:10.231Z,12.96
2023-03-19T21:33:43.520Z,12.89
2023-03-19T21:36:17.999Z,12.79
2023-03-19T21:38:51.770Z,12.71
2023-03-19T21:41:26.331Z,12.63
2023-03-19T21:44:02.004Z,12.52
2023-03-19T21:46:35.032Z,12.41
2023-03-19T21:49:09.542Z,12.30
2023-03-19T21:51:44.053Z,12.20
2023-03-19T21:54:16.768Z,12.10
2023-03-19T21:56:49.613Z,11.99
2023-03-19T21:59:23.738Z,11.90
2023-03-19T22:01:56.515Z,11.81
2023-03-19T22:04:29.164Z,11.69
2023-03-19T22:07:03.604Z,11.63
2023-03-19T22:09:37.388Z,11.53
2023-03-19T22:12:18.299Z,11.44
2023-03-19T22:14:52.285Z,11.35
2023-03-19T22:17:26.658Z,11.25
2023-03-19T22:19:59.399Z,11.19
2023-03-19T22:22:34.104Z,11.11
2023-03-19T22:25:07.447Z,11.04
2023-03-19T22:27:40.753Z,10.98
2023-03-19T22:30:21.753Z,10.91
2023-03-19T22:32:56.213Z,10.85
2023-03-19T22:35:28.929Z,10.79
2023-03-19T22:38:03.047Z,10.72
2023-03-19T22:40:35.963Z,10.68
2023-03-19T22:43:15.553Z,10.63
2023-03-19T22:45:51.960Z,10.59
2023-03-19T22:48:24.785Z,10.54
2023-03-19T22:50:57.498Z,10.52
2023-03-19T22:53:33.051Z,10.51
2023-03-19T22:56:06.128Z,10.54
2023-03-19T22:58:39.024Z,10.57
2023-03-19T23:01:29.182Z,10.61
2023-03-19T23:04:15.323Z,10.68
2023-03-19T23:06:48.181Z,10.74
2023-03-19T23:09:24.146Z,10.82
2023-03-19T23:11:57.941Z,10.92
2023-03-19T23:14:31.404Z,10.98
2023-03-19T23:17:09.246Z,11.09
2023-03-19T23:19:41.995Z,11.15
2023-03-19T23:22:16.059Z,11.25
2023-03-19T23:24:50.283Z,11.34
2023-03-19T23:27:24.641Z,11.40
2023-03-19T23:29:57.589Z,11.47
2023-03-19T23:32:30.259Z,11.56
2023-03-19T23:35:02.936Z,11.62
2023-03-19T23:37:35.666Z,11.67
2023-03-19T23:40:11.732Z,11.74
2023-03-19T23:42:46.350Z,11.78
2023-03-19T23:45:29.071Z,11.85
2023-03-19T23:48:03.258Z,11.88
2023-03-19T23:50:36.768Z,11.91
2023-03-19T23:53:18.693Z,11.92
2023-03-19T23:55:55.612Z,11.94
2023-03-19T23:58:31.250Z,11.95
